Westchester, Illinois
Current Conditions -  °F | °C
As of 10:53 PM on Wednesday 17 Dec 2014 (Local Time) from KMDW Reporting Station
Overcast Overcast  
Wind Chill: 19°   Ceiling: 2400
Heat Index: 27°   Visibility: 10mi
Dew Point: 16°   Wind: 7mph
Humidity: 63%   Direction: 280°W
Pressure: 30.29"   Gusts: NA
Location:  41.86°N, 87.88°W
Report Text: KMDW 180453Z 28006KT 10SM OVC024 M03/M09 A3029 RMK AO2 SLP271 T10281089
Loading
Personal Weather Stations






























Interactive Weather Map New forecast layout! Learn more

10-Day Weather Forecast

Advertisements
Track Severe Weather on mobile